Time;durP1;ratioP1;P1;durP2;ratioP2;P2;SDS_P1;SDS_P2;PMS_P1;PMS_P2;Temp;Humidity;BMP_temperature;BMP_pressure;BME280_temperature;BME280_humidity;BME280_pressure;Samples;Min_cycle;Max_cycle;Signal;HPM_P1;HPM_P2
2021/10/18 07:47:16;;;;;;;10.70;8.33;;;;;;;;;;5534359;22;20771;-49
2021/10/18 07:49:42;;;;;;;15.07;13.48;;;;;;;;;;5073423;28;20379;-56
2021/10/18 07:52:12;;;;;;;14.35;10.77;;;;;;;;;;5071046;28;20389;-55
2021/10/18 07:54:42;;;;;;;13.48;10.05;;;;;;;;;;5059939;28;20390;-52
2021/10/18 07:57:08;;;;;;;16.90;12.98;;;;;;;;;;5080404;28;20394;-54
2021/10/18 07:59:34;;;;;;;16.37;14.60;;;;;;;;;;5079403;28;20848;-52
2021/10/18 08:02:00;;;;;;;16.17;13.35;;;;;;;;;;5062451;28;20398;-54
2021/10/18 08:04:26;;;;;;;16.08;12.57;;;;;;;;;;5065932;28;20486;-52
2021/10/18 08:06:52;;;;;;;15.10;12.93;;;;;;;;;;5069917;28;20380;-52
2021/10/18 08:09:20;;;;;;;15.98;12.77;;;;;;;;;;5070337;28;20372;-57
2021/10/18 08:11:46;;;;;;;17.15;13.30;;;;;;;;;;5066836;28;20384;-56
2021/10/18 08:14:12;;;;;;;14.85;12.68;;;;;;;;;;5067234;28;20368;-52
2021/10/18 08:16:39;;;;;;;14.38;12.48;;;;;;;;;;5069066;28;20376;-52
2021/10/18 08:19:05;;;;;;;15.60;13.05;;;;;;;;;;5069152;28;20403;-50
2021/10/18 08:21:31;;;;;;;17.90;12.60;;;;;;;;;;5069268;28;20380;-48
2021/10/18 08:23:57;;;;;;;15.38;12.40;;;;;;;;;;5068423;28;20426;-52
2021/10/18 08:26:23;;;;;;;17.13;12.50;;;;;;;;;;5069076;28;20380;-51
2021/10/18 08:28:49;;;;;;;18.00;12.07;;;;;;;;;;5069302;28;20380;-50
2021/10/18 08:31:15;;;;;;;17.83;12.70;;;;;;;;;;5068936;28;20383;-52
2021/10/18 08:33:41;;;;;;;16.10;11.70;;;;;;;;;;5068321;28;20376;-51
2021/10/18 08:36:08;;;;;;;18.08;12.52;;;;;;;;;;5068409;28;20726;-54
2021/10/18 08:38:47;;;;;;;17.67;12.10;;;;;;;;;;5069433;28;20426;-58
2021/10/18 08:41:26;;;;;;;15.65;11.90;;;;;;;;;;5059876;28;20388;-57
2021/10/18 08:46:22;;;;;;;17.08;12.98;;;;;;;;;;5063048;28;20676;-57
2021/10/18 08:48:53;;;;;;;18.95;13.98;;;;;;;;;;5069684;28;20414;-57
2021/10/18 08:51:19;;;;;;;21.63;14.43;;;;;;;;;;5067941;28;20376;-57
2021/10/18 08:53:46;;;;;;;17.05;13.52;;;;;;;;;;5067753;28;20383;-56
2021/10/18 08:56:12;;;;;;;19.00;14.03;;;;;;;;;;5068327;28;20395;-60
2021/10/18 08:58:39;;;;;;;18.90;13.27;;;;;;;;;;5067070;28;20453;-60
2021/10/18 09:01:05;;;;;;;17.33;13.57;;;;;;;;;;5069196;28;20387;-66
2021/10/18 09:03:32;;;;;;;17.92;13.35;;;;;;;;;;5059004;28;20389;-60
2021/10/18 09:06:17;;;;;;;18.00;13.60;;;;;;;;;;5067484;28;20387;-60
2021/10/18 09:08:45;;;;;;;18.23;13.52;;;;;;;;;;5069482;28;20552;-64
2021/10/18 09:11:13;;;;;;;17.58;13.02;;;;;;;;;;5068300;28;20764;-59
2021/10/18 09:13:43;;;;;;;17.90;13.18;;;;;;;;;;5057354;28;20431;-58
2021/10/18 09:16:11;;;;;;;16.25;12.13;;;;;;;;;;5065727;28;20910;-60
2021/10/18 09:18:37;;;;;;;16.17;12.13;;;;;;;;;;5056590;28;20440;-57
2021/10/18 09:21:04;;;;;;;16.10;11.93;;;;;;;;;;5074710;28;20411;-60
2021/10/18 09:23:40;;;;;;;13.05;11.43;;;;;;;;;;5067892;28;20388;-55
2021/10/18 09:26:13;;;;;;;14.93;12.10;;;;;;;;;;5057223;28;20404;-61
2021/10/18 09:28:40;;;;;;;13.50;11.38;;;;;;;;;;5062094;28;20475;-62
2021/10/18 09:31:06;;;;;;;14.05;11.30;;;;;;;;;;5072599;28;20534;-57
2021/10/18 09:33:35;;;;;;;13.10;11.25;;;;;;;;;;5080164;28;20935;-58
2021/10/18 09:36:03;;;;;;;12.48;10.82;;;;;;;;;;5072133;28;20881;-57
2021/10/18 09:38:29;;;;;;;12.77;10.60;;;;;;;;;;5068005;28;20415;-57
2021/10/18 09:40:58;;;;;;;13.97;10.83;;;;;;;;;;5080857;28;20898;-58
2021/10/18 09:43:34;;;;;;;12.23;10.38;;;;;;;;;;5068735;28;20878;-62
2021/10/18 09:46:04;;;;;;;13.02;10.55;;;;;;;;;;5058093;28;20399;-60
2021/10/18 10:53:20;;;;;;;12.73;10.93;;;;;;;;;;5064078;28;20441;-54
2021/10/18 10:55:47;;;;;;;13.43;11.25;;;;;;;;;;5057193;28;20432;-59
2021/10/18 10:58:32;;;;;;;14.40;11.48;;;;;;;;;;5071899;28;20430;-52
2021/10/18 11:00:58;;;;;;;14.30;10.85;;;;;;;;;;5088353;28;20427;-58
2021/10/18 11:03:31;;;;;;;14.15;11.10;;;;;;;;;;5058793;28;20453;-58
2021/10/18 11:06:04;;;;;;;14.27;11.80;;;;;;;;;;5085159;28;20427;-57
2021/10/18 11:08:31;;;;;;;14.73;13.15;;;;;;;;;;5083141;28;20380;-52
2021/10/18 11:11:05;;;;;;;15.95;12.80;;;;;;;;;;5072840;28;20769;-55
2021/10/18 11:13:31;;;;;;;14.13;12.00;;;;;;;;;;5071199;28;20789;-50
2021/10/18 11:16:01;;;;;;;14.55;12.75;;;;;;;;;;5084634;28;20373;-53
2021/10/18 11:18:27;;;;;;;14.90;13.02;;;;;;;;;;5064078;28;20497;-54
2021/10/18 11:20:53;;;;;;;14.65;13.15;;;;;;;;;;5084540;28;20820;-54
2021/10/18 11:23:19;;;;;;;14.38;12.07;;;;;;;;;;5058001;28;20390;-53
2021/10/18 11:25:45;;;;;;;13.73;12.20;;;;;;;;;;5083089;28;20370;-55
2021/10/18 11:28:11;;;;;;;14.50;12.97;;;;;;;;;;5077820;28;20374;-54
2021/10/18 11:30:39;;;;;;;13.85;12.45;;;;;;;;;;5078841;28;20375;-55
2021/10/18 11:33:10;;;;;;;12.95;11.65;;;;;;;;;;5061245;28;20457;-54
2021/10/18 11:35:37;;;;;;;12.68;11.38;;;;;;;;;;5080041;28;20377;-54
2021/10/18 11:38:05;;;;;;;13.60;11.90;;;;;;;;;;5076069;28;20379;-54
2021/10/18 11:40:43;;;;;;;13.27;11.90;;;;;;;;;;5080015;28;20407;-54
2021/10/18 11:43:13;;;;;;;12.48;11.23;;;;;;;;;;5055049;28;20389;-54
2021/10/18 11:45:44;;;;;;;41.17;21.27;;;;;;;;;;5052645;28;20733;-52
2021/10/18 11:48:12;;;;;;;30.25;16.52;;;;;;;;;;5066340;28;20411;-55
2021/10/18 11:50:39;;;;;;;25.45;13.55;;;;;;;;;;5081395;28;20456;-52
2021/10/18 11:53:21;;;;;;;18.38;12.48;;;;;;;;;;5068141;28;20388;-55
2021/10/18 11:55:49;;;;;;;18.02;12.05;;;;;;;;;;5077728;28;20874;-56
2021/10/18 11:58:18;;;;;;;15.93;11.85;;;;;;;;;;5067826;28;20431;-58
2021/10/18 12:00:44;;;;;;;13.77;10.68;;;;;;;;;;5069170;28;20932;-55
2021/10/18 12:03:12;;;;;;;14.35;10.82;;;;;;;;;;5070454;28;20390;-59
2021/10/18 12:05:43;;;;;;;15.95;10.82;;;;;;;;;;5072109;28;20831;-58
2021/10/18 12:08:10;;;;;;;16.75;10.60;;;;;;;;;;5075996;28;20436;-59
2021/10/18 12:10:36;;;;;;;18.13;9.90;;;;;;;;;;5063852;28;20368;-60
2021/10/18 12:13:08;;;;;;;14.50;9.30;;;;;;;;;;5090826;28;20362;-58
2021/10/18 12:15:37;;;;;;;16.13;10.20;;;;;;;;;;5076577;28;20852;-59
2021/10/18 12:18:04;;;;;;;14.40;9.52;;;;;;;;;;5071068;28;20893;-59
2021/10/18 12:20:30;;;;;;;15.52;9.85;;;;;;;;;;5062511;28;20398;-60
2021/10/18 12:23:02;;;;;;;13.75;9.52;;;;;;;;;;5064896;28;20415;-60
2021/10/18 12:25:28;;;;;;;14.77;9.32;;;;;;;;;;5056457;28;20388;-60
2021/10/18 12:27:54;;;;;;;14.35;9.43;;;;;;;;;;5083180;28;20445;-60
2021/10/18 12:30:40;;;;;;;15.35;8.98;;;;;;;;;;5077452;28;20404;-58
2021/10/18 12:33:07;;;;;;;12.95;8.57;;;;;;;;;;5060109;28;20480;-61
2021/10/18 12:35:33;;;;;;;13.67;8.83;;;;;;;;;;5069146;28;20388;-60
2021/10/18 12:37:59;;;;;;;12.60;8.27;;;;;;;;;;5079488;28;20374;-59
2021/10/18 12:40:25;;;;;;;13.02;8.30;;;;;;;;;;5072626;28;20383;-60
2021/10/18 12:42:51;;;;;;;10.85;7.95;;;;;;;;;;5059910;28;20382;-59
2021/10/18 12:45:19;;;;;;;14.27;8.07;;;;;;;;;;5065991;28;20374;-59
2021/10/18 12:47:50;;;;;;;11.40;8.03;;;;;;;;;;5070304;28;20417;-59
2021/10/18 12:50:19;;;;;;;11.85;7.82;;;;;;;;;;5076291;28;20472;-58
2021/10/18 12:52:51;;;;;;;12.00;7.70;;;;;;;;;;5076584;28;20399;-58
2021/10/18 12:55:19;;;;;;;11.18;7.18;;;;;;;;;;5071817;28;20411;-59
2021/10/18 12:57:49;;;;;;;10.23;7.45;;;;;;;;;;5080017;28;20433;-58
2021/10/18 13:00:17;;;;;;;11.07;7.25;;;;;;;;;;5085842;28;20382;-59
2021/10/18 13:02:46;;;;;;;11.83;7.27;;;;;;;;;;5072269;28;20389;-59
2021/10/18 13:05:13;;;;;;;10.57;7.60;;;;;;;;;;5063595;28;20967;-59
2021/10/18 13:07:41;;;;;;;11.37;7.20;;;;;;;;;;5081707;28;20372;-59
2021/10/18 13:10:08;;;;;;;9.95;6.90;;;;;;;;;;5082533;28;20374;-59
2021/10/18 13:12:34;;;;;;;9.55;6.60;;;;;;;;;;5065906;28;20415;-59
2021/10/18 13:15:00;;;;;;;10.17;7.23;;;;;;;;;;5060797;28;20379;-59
2021/10/18 13:17:26;;;;;;;8.80;6.50;;;;;;;;;;5070748;28;20409;-59
2021/10/18 13:19:53;;;;;;;9.75;6.78;;;;;;;;;;5061040;28;20427;-59
2021/10/18 13:22:20;;;;;;;9.90;7.10;;;;;;;;;;5068108;28;20391;-59
2021/10/18 13:24:46;;;;;;;10.15;6.90;;;;;;;;;;5061352;28;20406;-60
2021/10/18 13:27:12;;;;;;;8.05;6.72;;;;;;;;;;5063916;28;20394;-58
2021/10/18 13:29:38;;;;;;;9.18;6.85;;;;;;;;;;5061432;28;20375;-59
2021/10/18 13:32:04;;;;;;;8.63;6.17;;;;;;;;;;5082282;28;20440;-59
2021/10/18 13:34:32;;;;;;;8.55;6.20;;;;;;;;;;5069074;28;20363;-58
2021/10/18 13:37:01;;;;;;;8.98;6.60;;;;;;;;;;5054236;28;20405;-59
2021/10/18 13:39:28;;;;;;;8.40;6.88;;;;;;;;;;5068927;28;20488;-59
2021/10/18 13:41:54;;;;;;;8.40;6.80;;;;;;;;;;5072345;28;20370;-57
2021/10/18 13:44:20;;;;;;;9.82;6.57;;;;;;;;;;5078521;28;20376;-59
2021/10/18 13:46:47;;;;;;;9.40;6.70;;;;;;;;;;5061477;28;20475;-59
2021/10/18 13:49:13;;;;;;;8.15;6.30;;;;;;;;;;5058232;28;20394;-58
2021/10/18 13:51:40;;;;;;;8.80;6.32;;;;;;;;;;5072004;28;20829;-57
2021/10/18 13:54:07;;;;;;;8.68;6.30;;;;;;;;;;5077019;28;20408;-59
2021/10/18 13:56:34;;;;;;;7.65;6.03;;;;;;;;;;5081981;28;20813;-59
2021/10/18 13:59:00;;;;;;;7.55;6.13;;;;;;;;;;5051582;28;20772;-59
2021/10/18 14:01:26;;;;;;;8.23;6.10;;;;;;;;;;5059480;28;20376;-59
2021/10/18 14:03:52;;;;;;;8.20;6.10;;;;;;;;;;5080673;28;20437;-58
2021/10/18 14:06:18;;;;;;;8.18;5.93;;;;;;;;;;5079928;28;20450;-58
2021/10/18 14:08:44;;;;;;;7.65;6.07;;;;;;;;;;5073182;28;20477;-58
2021/10/18 14:11:11;;;;;;;7.18;6.20;;;;;;;;;;5056543;28;20379;-58
2021/10/18 14:13:37;;;;;;;7.32;5.97;;;;;;;;;;5083296;28;20366;-59
2021/10/18 14:16:03;;;;;;;7.20;5.72;;;;;;;;;;5078791;28;20384;-58
2021/10/18 14:18:30;;;;;;;6.38;5.40;;;;;;;;;;5051399;28;20873;-58
2021/10/18 14:20:56;;;;;;;9.10;6.07;;;;;;;;;;5059730;28;20718;-58
2021/10/18 14:23:22;;;;;;;6.82;5.53;;;;;;;;;;5077499;28;20737;-59
2021/10/18 14:25:49;;;;;;;7.78;5.82;;;;;;;;;;5090719;28;20424;-59
2021/10/18 14:28:15;;;;;;;7.40;5.77;;;;;;;;;;5081251;28;20875;-60
2021/10/18 14:30:41;;;;;;;7.38;5.20;;;;;;;;;;5063235;28;20390;-53
2021/10/18 14:33:13;;;;;;;7.93;5.60;;;;;;;;;;5071021;28;20883;-56
2021/10/18 14:35:39;;;;;;;5.95;5.13;;;;;;;;;;5059969;28;20533;-59
2021/10/18 14:38:05;;;;;;;6.90;5.68;;;;;;;;;;5056787;28;20407;-55
2021/10/18 14:40:32;;;;;;;6.60;5.32;;;;;;;;;;5058067;28;20378;-56
2021/10/18 14:42:58;;;;;;;6.18;5.32;;;;;;;;;;5074507;28;20366;-55
2021/10/18 14:45:24;;;;;;;6.68;5.35;;;;;;;;;;5073172;28;20364;-54
2021/10/18 14:47:50;;;;;;;6.15;5.05;;;;;;;;;;5076050;28;20413;-54
2021/10/18 14:50:16;;;;;;;5.90;5.30;;;;;;;;;;5079025;28;20854;-53
2021/10/18 14:52:44;;;;;;;6.03;5.18;;;;;;;;;;5091900;28;20556;-53
2021/10/18 14:55:10;;;;;;;5.65;5.03;;;;;;;;;;5078663;28;20386;-57
2021/10/18 14:57:36;;;;;;;7.30;5.40;;;;;;;;;;5073596;28;20899;-53
2021/10/18 15:00:03;;;;;;;5.90;4.90;;;;;;;;;;5064620;28;20784;-55
2021/10/18 15:02:29;;;;;;;5.97;5.10;;;;;;;;;;5070137;28;20384;-55
2021/10/18 15:04:56;;;;;;;5.30;4.80;;;;;;;;;;5071394;28;20490;-54
2021/10/18 15:07:22;;;;;;;6.30;4.80;;;;;;;;;;5076564;28;20375;-54
2021/10/18 15:09:49;;;;;;;5.60;4.90;;;;;;;;;;5089728;28;20850;-52
2021/10/18 15:12:19;;;;;;;5.82;4.90;;;;;;;;;;5083823;28;20383;-53
2021/10/18 15:14:45;;;;;;;5.75;4.72;;;;;;;;;;5069377;28;20374;-53
2021/10/18 15:17:12;;;;;;;5.40;4.50;;;;;;;;;;5066399;28;20405;-53
2021/10/18 15:19:38;;;;;;;5.95;4.60;;;;;;;;;;5063576;28;20443;-54
2021/10/18 15:22:05;;;;;;;5.63;4.38;;;;;;;;;;5067454;28;20726;-53
2021/10/18 15:24:31;;;;;;;6.03;4.53;;;;;;;;;;5068961;28;20388;-52
2021/10/18 15:26:57;;;;;;;4.88;4.20;;;;;;;;;;5068901;28;20383;-51
2021/10/18 15:29:23;;;;;;;6.00;4.45;;;;;;;;;;5069190;28;20375;-54
2021/10/18 15:31:51;;;;;;;4.55;4.10;;;;;;;;;;5068413;28;20390;-51
2021/10/18 15:34:18;;;;;;;5.00;4.20;;;;;;;;;;5063847;28;20477;-53
2021/10/18 15:36:45;;;;;;;4.60;4.00;;;;;;;;;;5068432;28;20468;-53
2021/10/18 15:39:13;;;;;;;4.68;4.18;;;;;;;;;;5069041;28;20434;-54
2021/10/18 15:41:39;;;;;;;5.00;4.07;;;;;;;;;;5067557;28;20508;-54
2021/10/18 15:44:06;;;;;;;4.80;4.10;;;;;;;;;;5069037;28;20384;-54
2021/10/18 15:46:33;;;;;;;4.90;3.90;;;;;;;;;;5067731;28;20403;-53
2021/10/18 15:48:59;;;;;;;4.80;4.00;;;;;;;;;;5068464;28;20413;-52
2021/10/18 15:51:26;;;;;;;5.18;3.92;;;;;;;;;;5068543;28;20423;-51
2021/10/18 15:53:52;;;;;;;4.00;3.60;;;;;;;;;;5067229;28;20388;-53
2021/10/18 15:56:18;;;;;;;4.63;3.80;;;;;;;;;;5064409;28;20379;-53
2021/10/18 15:58:44;;;;;;;4.20;3.80;;;;;;;;;;5068018;28;20432;-53
2021/10/18 16:01:10;;;;;;;5.05;3.83;;;;;;;;;;5066454;28;20376;-54
2021/10/18 16:03:36;;;;;;;4.18;3.63;;;;;;;;;;5067595;28;20372;-52
2021/10/18 16:06:06;;;;;;;4.10;3.70;;;;;;;;;;5065918;28;20394;-55
2021/10/18 16:08:32;;;;;;;4.30;3.90;;;;;;;;;;5066920;28;20384;-56
2021/10/18 16:11:02;;;;;;;3.83;3.30;;;;;;;;;;5067884;28;20391;-57
2021/10/18 16:13:28;;;;;;;5.22;3.75;;;;;;;;;;5068393;28;20390;-54
2021/10/18 16:15:59;;;;;;;4.00;3.55;;;;;;;;;;5076394;28;20388;-53
2021/10/18 16:18:25;;;;;;;4.60;3.78;;;;;;;;;;5059159;28;20408;-53
2021/10/18 16:20:51;;;;;;;4.32;3.50;;;;;;;;;;5068537;28;20399;-56
2021/10/18 16:23:20;;;;;;;5.65;3.60;;;;;;;;;;5068680;28;20383;-52
2021/10/18 16:25:51;;;;;;;4.68;3.92;;;;;;;;;;5067654;28;20460;-56
2021/10/18 16:28:18;;;;;;;6.35;3.97;;;;;;;;;;5083669;28;20405;-51
2021/10/18 16:30:44;;;;;;;7.00;3.80;;;;;;;;;;5079505;28;20379;-53
2021/10/18 16:33:11;;;;;;;5.53;3.65;;;;;;;;;;5070807;28;20845;-50
2021/10/18 16:35:37;;;;;;;5.55;3.63;;;;;;;;;;5057825;28;20702;-49
2021/10/18 16:38:03;;;;;;;7.30;3.83;;;;;;;;;;5073454;28;20834;-49
2021/10/18 16:40:29;;;;;;;4.90;3.90;;;;;;;;;;5076487;28;20380;-49
2021/10/18 16:42:58;;;;;;;5.30;4.00;;;;;;;;;;5072738;28;20382;-53
2021/10/18 16:45:24;;;;;;;4.67;4.00;;;;;;;;;;5053098;28;20391;-54
2021/10/18 16:47:50;;;;;;;5.35;4.10;;;;;;;;;;5062180;28;20971;-54
2021/10/18 16:50:17;;;;;;;5.60;4.13;;;;;;;;;;5060395;28;20822;-53
2021/10/18 16:52:43;;;;;;;5.25;4.30;;;;;;;;;;5073760;28;20746;-54
2021/10/18 16:55:10;;;;;;;4.55;3.97;;;;;;;;;;5058737;28;20836;-53
2021/10/18 16:57:38;;;;;;;5.10;4.03;;;;;;;;;;5053717;28;20774;-53
2021/10/18 17:00:07;;;;;;;4.55;4.00;;;;;;;;;;5078689;28;20893;-54
2021/10/18 17:02:33;;;;;;;5.45;4.53;;;;;;;;;;5075264;28;20750;-52
2021/10/18 17:04:59;;;;;;;4.78;4.30;;;;;;;;;;5060922;28;20852;-53
2021/10/18 17:07:25;;;;;;;5.32;4.28;;;;;;;;;;5076982;28;20528;-54
2021/10/18 17:09:52;;;;;;;4.70;4.07;;;;;;;;;;5075453;28;20798;-52
2021/10/18 17:12:19;;;;;;;4.77;4.37;;;;;;;;;;5078716;28;20398;-53
2021/10/18 17:14:48;;;;;;;4.85;4.05;;;;;;;;;;5057575;28;20401;-51
2021/10/18 17:17:14;;;;;;;5.47;4.20;;;;;;;;;;5063191;28;20856;-51
2021/10/18 17:19:41;;;;;;;4.90;4.40;;;;;;;;;;5059636;28;20833;-53
2021/10/18 17:22:07;;;;;;;4.45;3.90;;;;;;;;;;5081830;28;20935;-52
2021/10/18 17:24:34;;;;;;;4.63;3.90;;;;;;;;;;5063421;28;20393;-52
2021/10/18 17:27:03;;;;;;;4.80;4.00;;;;;;;;;;5065192;28;20956;-51
2021/10/18 17:29:29;;;;;;;4.30;3.90;;;;;;;;;;5079150;28;20475;-52
2021/10/18 17:31:55;;;;;;;3.80;3.40;;;;;;;;;;5081935;28;20483;-53
2021/10/18 17:34:21;;;;;;;4.20;3.75;;;;;;;;;;5064434;28;20401;-49
2021/10/18 17:36:48;;;;;;;4.10;3.70;;;;;;;;;;5062450;28;20387;-50
2021/10/18 17:39:15;;;;;;;4.95;3.70;;;;;;;;;;5081151;28;20408;-51
2021/10/18 17:41:41;;;;;;;4.60;3.67;;;;;;;;;;5081722;28;20378;-51
2021/10/18 17:44:07;;;;;;;3.92;3.40;;;;;;;;;;5070987;28;20398;-51
2021/10/18 17:46:34;;;;;;;4.45;3.63;;;;;;;;;;5056059;28;20910;-53
2021/10/18 17:49:01;;;;;;;3.85;3.45;;;;;;;;;;5071041;28;20370;-54
2021/10/18 17:51:27;;;;;;;4.30;3.50;;;;;;;;;;5086826;28;20384;-54
2021/10/18 17:53:53;;;;;;;3.90;3.38;;;;;;;;;;5080509;28;20856;-54
2021/10/18 17:56:19;;;;;;;3.67;3.22;;;;;;;;;;5067338;28;20966;-51
2021/10/18 17:58:45;;;;;;;3.80;3.33;;;;;;;;;;5080389;28;20440;-50
2021/10/18 18:01:13;;;;;;;3.80;3.10;;;;;;;;;;5067629;28;20388;-52
2021/10/18 18:03:39;;;;;;;4.05;3.10;;;;;;;;;;5065585;28;20705;-52
2021/10/18 18:06:08;;;;;;;3.88;3.47;;;;;;;;;;5067905;28;20383;-53
2021/10/18 18:08:34;;;;;;;4.10;3.40;;;;;;;;;;5081873;28;20381;-53
2021/10/18 18:11:01;;;;;;;3.53;2.92;;;;;;;;;;5074425;28;20389;-53
2021/10/18 18:13:30;;;;;;;4.28;3.28;;;;;;;;;;5059027;28;20876;-51
2021/10/18 18:15:56;;;;;;;4.07;3.30;;;;;;;;;;5052454;28;20772;-53
2021/10/18 18:18:23;;;;;;;4.13;3.40;;;;;;;;;;5055323;28;20409;-50
2021/10/18 18:20:51;;;;;;;3.55;3.25;;;;;;;;;;5067620;28;20471;-51
2021/10/18 18:23:18;;;;;;;3.90;3.40;;;;;;;;;;5050299;28;20396;-52
2021/10/18 18:25:44;;;;;;;3.97;3.45;;;;;;;;;;5063187;28;20388;-49
2021/10/18 18:28:11;;;;;;;4.60;3.80;;;;;;;;;;5066611;28;20394;-53
2021/10/18 18:30:37;;;;;;;4.75;3.35;;;;;;;;;;5078464;28;20400;-52
2021/10/18 18:33:03;;;;;;;5.28;3.70;;;;;;;;;;5074145;28;20441;-52
2021/10/18 18:35:32;;;;;;;4.05;3.30;;;;;;;;;;5075309;28;20450;-50
2021/10/18 18:37:58;;;;;;;4.13;3.50;;;;;;;;;;5058445;28;20385;-49
2021/10/18 18:40:24;;;;;;;5.03;3.60;;;;;;;;;;5071818;28;20499;-49
2021/10/18 18:42:53;;;;;;;6.00;3.90;;;;;;;;;;5066094;28;20462;-49
2021/10/18 18:45:19;;;;;;;4.72;4.10;;;;;;;;;;5073433;28;20451;-50
2021/10/18 18:47:46;;;;;;;5.35;3.90;;;;;;;;;;5050163;28;20696;-50
2021/10/18 18:50:15;;;;;;;6.18;4.00;;;;;;;;;;5074502;28;20389;-51
2021/10/18 18:52:41;;;;;;;4.72;4.00;;;;;;;;;;5074188;28;20411;-51
2021/10/18 18:55:11;;;;;;;5.25;4.00;;;;;;;;;;5079840;28;20939;-50
2021/10/18 18:57:41;;;;;;;6.38;4.50;;;;;;;;;;5057843;28;20473;-52
2021/10/18 19:00:08;;;;;;;5.43;4.10;;;;;;;;;;5072621;28;20506;-50
2021/10/18 19:02:34;;;;;;;5.75;4.20;;;;;;;;;;5055826;28;20372;-55
2021/10/18 19:05:03;;;;;;;6.00;4.70;;;;;;;;;;5061576;28;20474;-54
2021/10/18 19:07:29;;;;;;;5.25;4.10;;;;;;;;;;5065735;28;20378;-53
2021/10/18 19:09:55;;;;;;;5.27;4.27;;;;;;;;;;5069566;28;20707;-49
2021/10/18 19:12:21;;;;;;;7.67;4.67;;;;;;;;;;5079433;28;20372;-52
2021/10/18 19:14:47;;;;;;;5.80;4.47;;;;;;;;;;5084452;28;20376;-53
2021/10/18 19:17:13;;;;;;;6.03;4.85;;;;;;;;;;5064986;28;20394;-49
2021/10/18 19:19:39;;;;;;;5.82;4.30;;;;;;;;;;5065140;28;20913;-52
2021/10/18 19:22:08;;;;;;;7.20;5.15;;;;;;;;;;5079053;28;20385;-49
2021/10/18 19:24:34;;;;;;;7.10;5.03;;;;;;;;;;5076846;28;20384;-50
2021/10/18 19:27:03;;;;;;;6.97;5.30;;;;;;;;;;5076795;28;20381;-52
2021/10/18 19:29:32;;;;;;;7.72;5.50;;;;;;;;;;5053396;28;20483;-49
2021/10/18 19:31:58;;;;;;;6.93;5.10;;;;;;;;;;5071862;28;20442;-54
2021/10/18 19:34:27;;;;;;;7.35;4.93;;;;;;;;;;5079859;28;20383;-52
2021/10/18 19:36:53;;;;;;;7.57;4.80;;;;;;;;;;5078547;28;20857;-51
2021/10/18 19:39:19;;;;;;;7.90;5.43;;;;;;;;;;5060552;28;20475;-49
2021/10/18 19:41:45;;;;;;;6.75;5.07;;;;;;;;;;5071782;28;20475;-54
2021/10/18 19:44:12;;;;;;;8.57;5.45;;;;;;;;;;5078288;28;20873;-51
2021/10/18 19:46:38;;;;;;;8.05;5.63;;;;;;;;;;5059329;28;20907;-49
2021/10/18 19:49:04;;;;;;;8.93;5.50;;;;;;;;;;5069647;28;20368;-52
2021/10/18 19:51:33;;;;;;;8.35;6.22;;;;;;;;;;5083576;28;20377;-51
2021/10/18 19:53:59;;;;;;;8.13;6.13;;;;;;;;;;5079942;28;20377;-54
2021/10/18 19:56:25;;;;;;;9.18;6.13;;;;;;;;;;5076720;28;20370;-54
2021/10/18 19:58:51;;;;;;;8.40;6.22;;;;;;;;;;5053500;28;20426;-54
2021/10/18 20:01:17;;;;;;;10.70;6.50;;;;;;;;;;5080590;28;20835;-53
2021/10/18 20:03:44;;;;;;;8.50;5.87;;;;;;;;;;5073076;28;20368;-54
2021/10/18 20:06:10;;;;;;;8.48;6.05;;;;;;;;;;5080733;28;20835;-55
2021/10/18 20:08:37;;;;;;;9.35;6.40;;;;;;;;;;5059040;28;20479;-52
2021/10/18 20:11:06;;;;;;;9.48;6.53;;;;;;;;;;5081623;28;20386;-53
2021/10/18 20:13:37;;;;;;;8.52;6.25;;;;;;;;;;5071992;28;20388;-51
2021/10/18 20:16:04;;;;;;;9.27;6.63;;;;;;;;;;5067641;28;20388;-55
2021/10/18 20:18:32;;;;;;;8.88;6.30;;;;;;;;;;5073874;28;20613;-54
2021/10/18 20:20:58;;;;;;;9.45;6.07;;;;;;;;;;5077530;28;20376;-54
2021/10/18 20:23:28;;;;;;;9.57;6.40;;;;;;;;;;5068993;28;20726;-54
2021/10/18 20:25:55;;;;;;;9.63;6.15;;;;;;;;;;5069347;28;20505;-49
2021/10/18 20:28:22;;;;;;;9.55;6.43;;;;;;;;;;5079509;28;20372;-52
2021/10/18 20:30:49;;;;;;;8.73;5.63;;;;;;;;;;5071378;28;20378;-52
2021/10/18 20:33:15;;;;;;;10.75;6.05;;;;;;;;;;5072652;28;20390;-52
2021/10/18 20:35:41;;;;;;;8.63;5.85;;;;;;;;;;5079816;28;20884;-52
2021/10/18 20:38:07;;;;;;;8.55;5.70;;;;;;;;;;5079121;28;20528;-53
2021/10/18 20:40:34;;;;;;;8.65;5.68;;;;;;;;;;5083266;28;20392;-53
2021/10/18 20:43:00;;;;;;;7.47;5.22;;;;;;;;;;5068150;28;20371;-53
2021/10/18 20:45:27;;;;;;;8.20;5.95;;;;;;;;;;5075216;28;20467;-55
2021/10/18 20:47:53;;;;;;;8.57;5.60;;;;;;;;;;5066696;28;20416;-54
2021/10/18 20:50:19;;;;;;;8.20;5.50;;;;;;;;;;5069078;28;20830;-53
2021/10/18 20:52:45;;;;;;;8.57;5.43;;;;;;;;;;5055573;28;20388;-53
2021/10/18 20:55:11;;;;;;;8.57;5.53;;;;;;;;;;5068819;28;20607;-53
2021/10/18 20:57:38;;;;;;;8.00;5.43;;;;;;;;;;5068298;28;20364;-53
2021/10/18 21:00:07;;;;;;;7.95;5.43;;;;;;;;;;5068774;28;20782;-49
2021/10/18 21:02:33;;;;;;;9.13;5.50;;;;;;;;;;5055619;28;20395;-53
2021/10/18 21:04:59;;;;;;;9.88;5.93;;;;;;;;;;5079607;28;20862;-50
2021/10/18 21:07:25;;;;;;;10.43;5.32;;;;;;;;;;5069379;28;20364;-50
2021/10/18 21:09:52;;;;;;;9.95;5.53;;;;;;;;;;5067227;28;20822;-50
2021/10/18 21:12:18;;;;;;;8.70;5.72;;;;;;;;;;5057352;28;20428;-50
2021/10/18 21:14:44;;;;;;;10.80;5.80;;;;;;;;;;5076936;28;20386;-55
2021/10/18 21:17:12;;;;;;;10.40;5.90;;;;;;;;;;5050993;28;20783;-56
2021/10/18 21:19:41;;;;;;;12.02;5.72;;;;;;;;;;5057905;28;20944;-57
2021/10/18 21:22:07;;;;;;;11.75;6.30;;;;;;;;;;5069961;28;20401;-55
2021/10/18 21:24:33;;;;;;;10.30;6.07;;;;;;;;;;5076315;28;20363;-49
